Terminal Aerodrome Forecast
Issued by NWS

Home | Current Version | Previous Version | Text Only | Print | Product List | Glossary On
Versions: 1 2 3 4 5 6 7 8 9 10 11 12 13 14 15
238
FTUS43 KOAX 061728
TAFSNY
TAF
KSNY 061728Z 0618/0718 14008KT P6SM SCT050 BKN200
     FM062100 14015G25KT P6SM VCTS SCT050CB BKN150
     FM070600 07012KT P6SM BKN050 WS020/19035KT=

USA.gov is the U.S. government's official web portal to all federal, state and local government web resources and services.